Time;durP1;ratioP1;P1;durP2;ratioP2;P2;SDS_P1;SDS_P2;PMS_P1;PMS_P2;Temp;Humidity;BMP_temperature;BMP_pressure;BME280_temperature;BME280_humidity;BME280_pressure;Samples;Min_cycle;Max_cycle;Signal;HPM_P1;HPM_P2
2022/10/31 00:01:29;;;;;;;13.15;7.40;;;12.40;99.90;;;;;;5096899;27;20050;-67
2022/10/31 00:03:54;;;;;;;14.10;9.30;;;12.40;99.90;;;;;;5112424;27;20122;-67
2022/10/31 00:06:21;;;;;;;16.08;8.95;;;12.40;99.90;;;;;;5110549;27;20131;-68
2022/10/31 00:08:52;;;;;;;16.17;7.75;;;12.40;99.90;;;;;;5107417;27;20055;-68
2022/10/31 00:11:17;;;;;;;12.45;8.70;;;12.40;99.90;;;;;;5098247;27;20482;-67
2022/10/31 00:13:43;;;;;;;11.73;7.80;;;12.30;99.90;;;;;;5130282;27;20115;-67
2022/10/31 00:16:20;;;;;;;11.35;7.68;;;12.30;99.90;;;;;;5111556;27;20067;-67
2022/10/31 00:18:54;;;;;;;12.55;7.90;;;12.30;99.90;;;;;;5112389;27;20047;-67
2022/10/31 00:21:21;;;;;;;11.32;7.82;;;12.30;99.90;;;;;;5113989;27;20035;-67
2022/10/31 00:23:47;;;;;;;13.00;8.70;;;12.20;99.90;;;;;;5111380;27;20081;-67
2022/10/31 00:26:13;;;;;;;15.68;8.40;;;12.20;99.90;;;;;;5092353;27;20050;-67
2022/10/31 00:28:39;;;;;;;15.70;9.07;;;12.20;99.90;;;;;;5105513;27;20031;-67
2022/10/31 00:31:07;;;;;;;14.48;8.25;;;12.10;99.90;;;;;;5113858;27;20031;-67
2022/10/31 00:33:35;;;;;;;14.45;8.70;;;12.10;99.90;;;;;;5114800;27;20047;-67
2022/10/31 00:36:00;;;;;;;13.32;8.75;;;12.10;99.90;;;;;;5112192;27;20121;-67
2022/10/31 00:38:26;;;;;;;15.30;8.05;;;12.10;99.90;;;;;;5113508;27;20113;-66
2022/10/31 00:40:51;;;;;;;13.27;8.07;;;12.00;99.90;;;;;;5112112;27;20051;-67
2022/10/31 00:43:17;;;;;;;12.93;8.30;;;12.00;99.90;;;;;;5115557;27;20042;-67
2022/10/31 00:45:43;;;;;;;14.77;8.43;;;12.00;99.90;;;;;;5114579;27;20031;-67
2022/10/31 00:48:10;;;;;;;13.45;8.15;;;12.00;99.90;;;;;;5096146;27;20039;-67
2022/10/31 00:50:36;;;;;;;11.20;8.32;;;12.00;99.90;;;;;;5113482;27;20046;-67
2022/10/31 00:53:02;;;;;;;17.35;8.38;;;12.00;99.90;;;;;;5114495;27;20035;-67
2022/10/31 00:55:28;;;;;;;15.10;8.35;;;11.90;99.90;;;;;;5113319;27;20505;-67
2022/10/31 00:57:54;;;;;;;12.63;8.10;;;11.90;99.90;;;;;;5112037;27;20035;-66
2022/10/31 01:00:19;;;;;;;16.35;8.68;;;11.90;99.90;;;;;;5112274;27;20393;-67
2022/10/31 01:02:45;;;;;;;16.13;8.80;;;11.90;99.90;;;;;;5114443;27;20082;-67
2022/10/31 01:05:11;;;;;;;12.10;8.57;;;11.90;99.90;;;;;;5113076;27;20051;-67
2022/10/31 01:07:38;;;;;;;16.10;8.25;;;11.90;99.90;;;;;;5111611;27;20063;-66
2022/10/31 01:10:05;;;;;;;18.05;10.30;;;11.90;99.90;;;;;;5109924;28;20043;-67
2022/10/31 01:12:43;;;;;;;14.40;9.00;;;11.90;99.90;;;;;;5110326;28;20626;-67
2022/10/31 01:15:11;;;;;;;16.52;9.68;;;11.90;99.90;;;;;;5110035;28;20042;-66
2022/10/31 01:17:37;;;;;;;15.63;10.40;;;11.80;99.90;;;;;;5109952;28;20506;-67
2022/10/31 01:20:05;;;;;;;12.50;8.50;;;11.90;99.90;;;;;;5110154;28;20039;-67
2022/10/31 01:22:31;;;;;;;16.33;9.07;;;11.80;99.90;;;;;;5110377;28;20498;-67
2022/10/31 01:24:56;;;;;;;17.83;8.95;;;11.80;99.90;;;;;;5092598;28;20130;-67
2022/10/31 01:27:22;;;;;;;13.57;9.20;;;11.80;99.90;;;;;;5109718;28;20039;-67
2022/10/31 01:29:47;;;;;;;15.48;9.10;;;11.80;99.90;;;;;;5109031;28;20032;-67
2022/10/31 01:32:13;;;;;;;10.35;7.90;;;11.80;99.90;;;;;;5109692;28;20390;-66
2022/10/31 01:34:39;;;;;;;12.88;8.52;;;11.70;99.90;;;;;;5110074;28;20070;-66
2022/10/31 01:37:04;;;;;;;13.25;8.75;;;11.70;99.90;;;;;;5107702;28;20169;-67
2022/10/31 01:39:30;;;;;;;13.82;9.07;;;11.70;99.90;;;;;;5108722;28;20063;-67
2022/10/31 01:41:55;;;;;;;16.55;8.77;;;11.70;99.90;;;;;;5110090;28;20040;-67
2022/10/31 01:44:21;;;;;;;16.05;8.85;;;11.60;99.90;;;;;;5108129;28;20071;-67
2022/10/31 01:46:49;;;;;;;11.43;8.45;;;11.60;99.90;;;;;;5109765;28;20040;-66
2022/10/31 01:49:33;;;;;;;12.10;8.00;;;11.60;99.90;;;;;;5092321;28;20100;-68
2022/10/31 01:52:30;;;;;;;15.05;8.25;;;11.50;99.90;;;;;;5110414;28;20393;-67
2022/10/31 01:55:07;;;;;;;10.60;8.05;;;11.50;99.90;;;;;;5107439;28;20039;-66
2022/10/31 01:57:35;;;;;;;11.65;7.80;;;11.40;99.90;;;;;;5109316;28;20133;-66
2022/10/31 02:00:05;;;;;;;13.00;8.10;;;11.40;99.90;;;;;;5101575;28;20036;-67
2022/10/31 02:02:32;;;;;;;12.02;8.07;;;11.40;99.90;;;;;;5089625;28;20036;-67
2022/10/31 02:05:01;;;;;;;11.27;8.13;;;11.30;99.90;;;;;;5106801;28;20047;-66
2022/10/31 02:07:33;;;;;;;10.55;7.63;;;11.30;99.90;;;;;;5107673;27;20628;-67
2022/10/31 02:10:02;;;;;;;13.18;7.55;;;11.30;99.90;;;;;;5109030;27;20493;-67
2022/10/31 02:12:30;;;;;;;11.50;8.05;;;11.30;99.90;;;;;;5111062;27;20072;-67
2022/10/31 02:14:56;;;;;;;10.05;7.78;;;11.30;99.90;;;;;;5090559;28;20088;-67
2022/10/31 02:17:22;;;;;;;12.75;8.40;;;11.30;99.90;;;;;;5111777;27;20039;-66
2022/10/31 02:19:51;;;;;;;9.88;7.90;;;11.30;99.90;;;;;;5112727;27;20550;-66
2022/10/31 02:22:30;;;;;;;11.60;7.50;;;11.30;99.90;;;;;;5094993;28;20103;-67
2022/10/31 02:25:13;;;;;;;13.05;7.90;;;11.30;99.90;;;;;;5107414;28;20587;-66
2022/10/31 02:28:17;;;;;;;13.07;7.60;;;11.20;99.90;;;;;;5112140;28;20074;-66
2022/10/31 02:30:58;;;;;;;11.45;7.07;;;11.20;99.90;;;;;;5110734;28;20038;-67
2022/10/31 02:33:36;;;;;;;9.20;7.22;;;11.20;99.90;;;;;;5112304;28;20064;-66
2022/10/31 02:36:16;;;;;;;9.27;6.90;;;11.10;99.90;;;;;;5111701;28;20170;-67
2022/10/31 02:38:50;;;;;;;10.25;6.97;;;11.10;99.90;;;;;;5113484;28;20046;-66
2022/10/31 02:41:16;;;;;;;13.68;8.10;;;11.10;99.90;;;;;;5109693;28;20092;-66
2022/10/31 02:44:06;;;;;;;8.45;7.13;;;11.10;99.90;;;;;;5112286;28;20481;-68
2022/10/31 02:46:35;;;;;;;8.48;7.18;;;11.00;99.90;;;;;;5094866;28;20561;-67
2022/10/31 02:49:07;;;;;;;10.32;7.40;;;11.00;99.90;;;;;;5113786;27;20074;-67
2022/10/31 02:51:34;;;;;;;11.35;7.25;;;11.00;99.90;;;;;;5099418;27;20405;-67
2022/10/31 02:54:00;;;;;;;10.50;6.85;;;11.00;99.90;;;;;;5116014;27;20443;-67
2022/10/31 02:56:25;;;;;;;10.98;7.55;;;11.00;99.90;;;;;;5116560;27;20055;-67
2022/10/31 02:58:59;;;;;;;11.57;7.60;;;10.90;99.90;;;;;;5115522;27;20085;-67
2022/10/31 03:02:03;;;;;;;8.73;6.30;;;10.90;99.90;;;;;;5114962;27;20040;-68
2022/10/31 03:04:46;;;;;;;11.27;7.35;;;10.90;99.90;;;;;;5114330;27;20101;-67
2022/10/31 03:07:21;;;;;;;11.45;6.88;;;10.90;99.90;;;;;;5099049;27;20039;-67
2022/10/31 03:10:13;;;;;;;13.45;6.65;;;10.80;99.90;;;;;;5115473;27;20119;-67
2022/10/31 03:13:01;;;;;;;8.65;6.90;;;10.80;99.90;;;;;;5115962;27;20038;-67
2022/10/31 03:15:40;;;;;;;9.43;6.68;;;10.80;99.90;;;;;;5115957;27;20043;-66
2022/10/31 03:18:25;;;;;;;11.07;6.97;;;10.70;99.90;;;;;;5115760;27;20057;-66
2022/10/31 03:21:05;;;;;;;10.68;6.80;;;10.70;99.90;;;;;;5114205;27;20035;-67
2022/10/31 03:23:34;;;;;;;8.98;6.10;;;10.70;99.90;;;;;;5115419;27;20049;-67
2022/10/31 03:26:04;;;;;;;9.55;6.25;;;10.60;99.90;;;;;;5116238;27;20043;-67
2022/10/31 03:28:39;;;;;;;8.93;6.45;;;10.60;99.90;;;;;;5096145;27;20096;-66
2022/10/31 03:31:05;;;;;;;12.30;7.07;;;10.60;99.90;;;;;;5133048;27;20038;-66
2022/10/31 03:33:35;;;;;;;8.75;6.47;;;10.60;99.90;;;;;;5114933;27;20496;-67
2022/10/31 03:36:04;;;;;;;8.40;6.50;;;10.50;99.90;;;;;;5114787;27;20055;-66
2022/10/31 03:38:31;;;;;;;9.73;6.30;;;10.50;99.90;;;;;;5113509;27;20072;-66
2022/10/31 03:41:01;;;;;;;11.88;7.25;;;10.50;99.90;;;;;;5115955;27;20446;-67
2022/10/31 03:43:32;;;;;;;8.77;7.15;;;10.50;99.90;;;;;;5114645;27;20539;-67
2022/10/31 03:45:59;;;;;;;8.55;7.00;;;10.50;99.90;;;;;;5096640;27;20043;-66
2022/10/31 03:48:25;;;;;;;10.52;6.80;;;10.50;99.90;;;;;;5115160;27;20031;-67
2022/10/31 03:51:22;;;;;;;8.55;6.70;;;10.50;99.90;;;;;;5109331;27;20115;-67
2022/10/31 03:53:57;;;;;;;8.55;6.32;;;10.40;99.90;;;;;;5110665;27;20084;-67
2022/10/31 03:56:33;;;;;;;10.25;6.72;;;10.40;99.90;;;;;;5097391;27;20046;-67
2022/10/31 03:59:12;;;;;;;8.63;6.45;;;10.30;99.90;;;;;;5114695;27;20096;-66
2022/10/31 04:01:43;;;;;;;8.65;6.05;;;10.30;99.90;;;;;;5118399;27;20829;-67
2022/10/31 04:04:09;;;;;;;7.22;6.20;;;10.30;99.90;;;;;;5115289;27;20401;-67
2022/10/31 04:06:39;;;;;;;9.63;5.78;;;10.30;99.90;;;;;;5114717;27;20118;-67
2022/10/31 04:09:07;;;;;;;7.88;6.22;;;10.30;99.90;;;;;;5109809;27;20445;-67
2022/10/31 04:11:38;;;;;;;7.65;5.90;;;10.30;99.90;;;;;;5113550;27;20035;-66
2022/10/31 04:14:06;;;;;;;9.82;7.10;;;10.30;99.90;;;;;;5120348;27;20208;-67
2022/10/31 04:16:31;;;;;;;10.93;6.80;;;10.20;99.90;;;;;;5113214;27;20803;-67
2022/10/31 04:18:57;;;;;;;9.70;6.43;;;10.20;99.90;;;;;;5093193;27;20051;-67
2022/10/31 04:21:30;;;;;;;9.95;6.63;;;10.20;99.90;;;;;;5115169;27;20134;-67
2022/10/31 04:23:56;;;;;;;9.63;7.15;;;10.20;99.90;;;;;;5114688;27;20039;-66
2022/10/31 04:26:22;;;;;;;10.52;7.43;;;10.20;99.90;;;;;;5115115;27;20443;-68
2022/10/31 04:28:48;;;;;;;9.82;7.20;;;10.10;99.90;;;;;;5115568;27;20035;-67
2022/10/31 04:31:14;;;;;;;9.13;6.65;;;10.10;99.90;;;;;;5130832;27;20358;-67
2022/10/31 04:33:40;;;;;;;10.63;7.00;;;10.10;99.90;;;;;;5097403;27;20046;-66
2022/10/31 04:36:06;;;;;;;10.45;7.07;;;10.00;99.90;;;;;;5115362;27;20023;-66
2022/10/31 04:38:31;;;;;;;10.15;7.15;;;10.00;99.90;;;;;;5097751;27;20107;-67
2022/10/31 04:40:57;;;;;;;8.65;6.25;;;10.00;99.90;;;;;;5095791;27;20122;-66
2022/10/31 04:43:23;;;;;;;9.70;7.15;;;10.00;99.90;;;;;;5114462;27;20486;-65
2022/10/31 04:45:48;;;;;;;8.27;6.53;;;10.00;99.90;;;;;;5114560;27;20046;-66
2022/10/31 04:48:14;;;;;;;8.52;6.97;;;10.00;99.90;;;;;;5131756;27;20119;-66
2022/10/31 04:50:40;;;;;;;9.20;7.07;;;10.00;99.90;;;;;;5114782;27;20050;-68
2022/10/31 04:53:05;;;;;;;7.85;6.20;;;10.00;99.90;;;;;;5113880;27;20179;-67
2022/10/31 04:55:31;;;;;;;7.50;6.00;;;10.00;99.90;;;;;;5113544;27;20035;-66
2022/10/31 04:57:57;;;;;;;7.97;6.60;;;10.00;99.90;;;;;;5117952;27;20047;-67
2022/10/31 05:00:23;;;;;;;8.48;6.85;;;10.00;99.90;;;;;;5112739;27;20072;-66
2022/10/31 05:02:56;;;;;;;11.85;6.72;;;10.00;99.90;;;;;;5114388;27;20046;-66
2022/10/31 05:05:24;;;;;;;8.70;6.00;;;9.90;99.90;;;;;;5111076;27;20485;-67
2022/10/31 05:07:51;;;;;;;7.78;6.25;;;9.90;99.90;;;;;;5112707;27;20088;-66
2022/10/31 05:10:19;;;;;;;8.60;6.22;;;9.90;99.90;;;;;;5113649;27;20039;-67
2022/10/31 05:12:47;;;;;;;7.72;6.93;;;9.90;99.90;;;;;;5112639;27;20057;-66
2022/10/31 05:15:13;;;;;;;8.77;6.43;;;9.90;99.90;;;;;;5113411;27;20130;-66
2022/10/31 05:17:39;;;;;;;9.95;6.93;;;9.90;99.90;;;;;;5112795;27;20467;-67
2022/10/31 05:20:05;;;;;;;10.63;6.60;;;9.90;99.90;;;;;;5114196;27;20043;-67
2022/10/31 05:22:30;;;;;;;9.18;6.88;;;9.90;99.90;;;;;;5113446;27;20411;-66
2022/10/31 05:24:56;;;;;;;9.80;7.07;;;9.90;99.90;;;;;;5113246;27;20035;-67
2022/10/31 05:27:22;;;;;;;9.23;7.13;;;9.90;99.90;;;;;;5096413;27;20062;-66
2022/10/31 05:29:47;;;;;;;8.70;7.07;;;9.90;99.90;;;;;;5112498;27;20478;-66
2022/10/31 05:32:13;;;;;;;9.82;7.40;;;9.80;99.90;;;;;;5112161;27;20108;-66
2022/10/31 05:34:38;;;;;;;8.13;6.85;;;9.80;99.90;;;;;;5112016;27;20488;-66
2022/10/31 05:37:04;;;;;;;9.20;7.22;;;9.80;99.90;;;;;;5112082;27;20104;-66
2022/10/31 05:39:30;;;;;;;7.90;6.90;;;9.80;99.90;;;;;;5097845;27;20063;-66
2022/10/31 05:41:55;;;;;;;9.13;7.43;;;9.70;99.90;;;;;;5105124;27;20047;-64
2022/10/31 05:44:21;;;;;;;11.90;7.80;;;9.70;99.90;;;;;;5093652;27;20086;-64
2022/10/31 05:46:47;;;;;;;11.05;7.45;;;9.70;99.90;;;;;;5112286;27;20092;-65
2022/10/31 05:49:13;;;;;;;8.15;6.55;;;9.70;99.90;;;;;;5110813;27;20093;-65
2022/10/31 05:51:38;;;;;;;8.82;6.88;;;9.70;99.90;;;;;;5109367;27;20044;-66
2022/10/31 05:54:04;;;;;;;10.43;7.35;;;9.70;99.90;;;;;;5110383;27;20118;-65
2022/10/31 05:56:30;;;;;;;10.68;7.80;;;9.70;99.90;;;;;;5127798;27;20043;-64
2022/10/31 05:58:55;;;;;;;9.05;8.02;;;9.70;99.90;;;;;;5111968;27;20031;-66
2022/10/31 06:01:21;;;;;;;10.52;8.00;;;9.70;99.90;;;;;;5128903;27;20038;-66
2022/10/31 06:03:46;;;;;;;12.60;8.43;;;9.60;99.90;;;;;;5108096;27;20047;-65
2022/10/31 06:06:12;;;;;;;8.52;7.35;;;9.60;99.90;;;;;;5112912;27;20441;-64
2022/10/31 06:08:38;;;;;;;8.63;7.45;;;9.50;99.90;;;;;;5108565;27;20091;-64
2022/10/31 06:11:03;;;;;;;11.63;7.97;;;9.50;99.90;;;;;;5091954;27;20043;-65
2022/10/31 06:13:29;;;;;;;5.75;5.15;;;9.50;99.90;;;;;;5112724;27;20035;-64
2022/10/31 06:15:55;;;;;;;8.07;4.95;;;9.50;99.90;;;;;;5110333;27;20047;-66
2022/10/31 06:18:20;;;;;;;5.45;4.85;;;9.50;99.90;;;;;;5131038;27;20035;-64
2022/10/31 06:20:46;;;;;;;6.40;4.90;;;9.50;99.90;;;;;;5113188;28;20053;-64
2022/10/31 06:23:12;;;;;;;7.05;5.50;;;9.40;99.90;;;;;;5094362;28;20058;-65
2022/10/31 06:25:38;;;;;;;5.10;4.47;;;9.40;99.90;;;;;;5112369;27;20047;-65
2022/10/31 06:28:04;;;;;;;5.68;4.03;;;9.40;99.90;;;;;;5109861;27;20505;-64
2022/10/31 06:30:29;;;;;;;7.70;4.25;;;9.30;99.90;;;;;;5093849;27;20035;-65
2022/10/31 06:33:00;;;;;;;5.53;4.07;;;9.30;99.90;;;;;;5113139;28;20045;-65
2022/10/31 06:35:26;;;;;;;3.97;3.50;;;9.20;99.90;;;;;;5112114;28;20401;-65
2022/10/31 06:37:55;;;;;;;4.72;3.47;;;9.20;99.90;;;;;;5112384;28;20039;-65
2022/10/31 06:40:21;;;;;;;4.00;2.83;;;9.20;99.90;;;;;;5129934;27;20035;-68
2022/10/31 06:42:47;;;;;;;3.33;2.70;;;9.10;99.90;;;;;;5111690;28;20524;-68
2022/10/31 06:45:13;;;;;;;3.47;3.03;;;9.10;99.90;;;;;;5095224;28;20079;-68
2022/10/31 06:47:39;;;;;;;5.85;3.33;;;9.00;99.90;;;;;;5112461;27;20035;-67
2022/10/31 06:50:05;;;;;;;4.75;3.42;;;9.00;99.90;;;;;;5112041;28;20304;-67
2022/10/31 06:52:30;;;;;;;7.15;4.13;;;9.00;99.90;;;;;;5093996;27;20043;-69
2022/10/31 06:54:56;;;;;;;9.07;4.80;;;9.00;99.90;;;;;;5113633;28;20081;-69
2022/10/31 06:57:21;;;;;;;7.18;4.43;;;9.00;99.90;;;;;;5112250;28;20083;-67
2022/10/31 06:59:47;;;;;;;7.43;5.00;;;9.00;99.90;;;;;;5094917;28;20397;-68
2022/10/31 07:02:13;;;;;;;6.90;4.53;;;9.00;99.90;;;;;;5109448;28;20031;-67
2022/10/31 07:04:38;;;;;;;9.48;5.70;;;9.00;99.90;;;;;;5112116;28;20126;-66
2022/10/31 07:07:04;;;;;;;11.20;6.55;;;9.00;99.90;;;;;;5111698;28;20035;-68
2022/10/31 07:09:30;;;;;;;7.68;5.88;;;9.10;99.90;;;;;;5111423;28;20501;-68
2022/10/31 07:11:55;;;;;;;7.78;5.75;;;9.10;99.90;;;;;;5113445;27;20117;-68
2022/10/31 07:14:21;;;;;;;7.40;6.30;;;9.10;99.90;;;;;;5112118;28;20122;-68
2022/10/31 07:16:50;;;;;;;14.50;7.22;;;9.10;99.90;;;;;;5095511;28;20103;-67
2022/10/31 07:19:16;;;;;;;7.78;5.63;;;9.10;99.90;;;;;;5106244;28;20042;-68
2022/10/31 07:21:42;;;;;;;9.32;6.95;;;9.10;99.90;;;;;;5110204;28;20058;-68
2022/10/31 07:24:07;;;;;;;10.60;8.90;;;9.10;99.90;;;;;;5110873;28;20374;-67
2022/10/31 07:26:33;;;;;;;13.48;9.55;;;9.10;99.90;;;;;;5111884;28;20043;-66
2022/10/31 07:28:59;;;;;;;12.98;9.88;;;9.10;99.90;;;;;;5112130;28;20031;-68
2022/10/31 07:31:25;;;;;;;13.50;10.43;;;9.20;99.90;;;;;;5111392;28;20421;-69
2022/10/31 07:33:50;;;;;;;13.32;10.32;;;9.30;99.90;;;;;;5106218;28;20041;-66
2022/10/31 07:36:16;;;;;;;16.48;10.70;;;9.40;99.90;;;;;;5115397;27;20039;-66
2022/10/31 07:38:41;;;;;;;15.70;11.00;;;9.40;99.90;;;;;;5110132;27;20035;-67
2022/10/31 07:41:07;;;;;;;20.38;12.40;;;9.50;99.90;;;;;;5110525;27;20039;-67
2022/10/31 07:43:33;;;;;;;17.20;11.63;;;9.60;99.90;;;;;;5113511;27;20043;-68
2022/10/31 07:45:58;;;;;;;14.95;11.25;;;9.60;99.90;;;;;;5113777;27;20090;-66
2022/10/31 07:48:24;;;;;;;14.30;11.32;;;9.70;99.90;;;;;;5093610;27;20755;-67
2022/10/31 07:50:50;;;;;;;17.17;12.18;;;9.80;99.90;;;;;;5096123;27;20047;-67
2022/10/31 07:53:15;;;;;;;14.63;10.90;;;9.80;99.90;;;;;;5115413;27;20393;-68
2022/10/31 07:55:42;;;;;;;13.30;11.05;;;9.80;99.90;;;;;;5108605;27;20046;-68
2022/10/31 07:58:17;;;;;;;15.48;11.43;;;9.90;99.90;;;;;;5112837;27;20084;-68
2022/10/31 08:00:44;;;;;;;14.38;11.18;;;10.00;99.90;;;;;;5113160;27;20047;-68
2022/10/31 08:03:16;;;;;;;15.35;10.95;;;10.00;99.90;;;;;;5112826;27;20039;-68
2022/10/31 08:05:42;;;;;;;14.50;10.98;;;10.10;99.90;;;;;;5121168;27;20040;-67
2022/10/31 08:08:08;;;;;;;15.63;11.70;;;10.10;99.90;;;;;;5115305;27;20051;-69
2022/10/31 08:10:35;;;;;;;18.48;12.40;;;10.20;99.90;;;;;;5115460;27;20054;-66
2022/10/31 08:13:07;;;;;;;15.65;12.55;;;10.30;99.90;;;;;;5114952;27;20046;-67
2022/10/31 08:15:39;;;;;;;17.58;12.45;;;10.40;99.90;;;;;;5114312;27;20035;-68
2022/10/31 08:18:05;;;;;;;18.73;12.82;;;10.50;99.90;;;;;;5114627;27;20047;-67
2022/10/31 08:20:31;;;;;;;18.02;13.32;;;10.60;99.90;;;;;;5115150;27;20054;-67
2022/10/31 08:23:02;;;;;;;19.75;13.95;;;10.70;99.90;;;;;;5118089;27;20042;-67
2022/10/31 08:25:30;;;;;;;16.65;13.48;;;10.80;99.90;;;;;;5115005;27;20043;-67
2022/10/31 08:27:56;;;;;;;19.52;14.15;;;10.90;99.90;;;;;;5113173;27;20114;-66
2022/10/31 08:30:25;;;;;;;21.05;14.38;;;11.10;99.90;;;;;;5114667;27;20038;-68
2022/10/31 08:33:17;;;;;;;23.60;15.60;;;11.20;99.90;;;;;;5112576;27;20048;-67
2022/10/31 08:35:44;;;;;;;20.27;15.38;;;11.40;99.90;;;;;;5107714;27;20055;-68
2022/10/31 08:38:11;;;;;;;21.23;14.63;;;11.50;99.90;;;;;;5114955;27;20058;-68
2022/10/31 08:40:37;;;;;;;21.25;15.57;;;11.60;99.90;;;;;;5097190;27;20536;-68
2022/10/31 08:43:14;;;;;;;21.40;15.75;;;11.70;99.90;;;;;;5114750;27;20078;-67
2022/10/31 08:45:41;;;;;;;22.27;15.02;;;11.70;99.90;;;;;;5114661;27;20043;-67
2022/10/31 08:48:10;;;;;;;22.33;16.00;;;11.70;99.90;;;;;;5113844;27;20522;-67
2022/10/31 08:50:36;;;;;;;20.60;15.32;;;11.70;99.90;;;;;;5131286;27;20078;-68
2022/10/31 08:53:17;;;;;;;20.02;14.82;;;11.60;99.90;;;;;;5129858;27;20385;-68
2022/10/31 08:55:43;;;;;;;22.58;15.13;;;11.70;99.90;;;;;;5110422;27;20051;-69
2022/10/31 08:58:17;;;;;;;19.95;15.07;;;11.70;99.90;;;;;;5115333;27;20039;-67
2022/10/31 09:00:44;;;;;;;20.23;15.00;;;11.80;99.90;;;;;;5111240;27;20122;-66
2022/10/31 09:03:19;;;;;;;22.58;15.95;;;11.90;99.90;;;;;;5112381;27;20050;-67
2022/10/31 09:05:45;;;;;;;20.58;15.40;;;12.20;99.90;;;;;;5114323;27;20039;-67
2022/10/31 09:08:12;;;;;;;20.80;14.98;;;12.50;99.90;;;;;;5096992;27;20107;-67
2022/10/31 09:10:38;;;;;;;20.70;15.10;;;12.70;99.90;;;;;;5111090;27;20042;-68
2022/10/31 09:13:10;;;;;;;19.65;14.38;;;12.80;99.90;;;;;;5112024;27;20047;-66
2022/10/31 09:15:40;;;;;;;20.02;15.07;;;12.90;99.90;;;;;;5107992;27;20047;-68
2022/10/31 09:18:07;;;;;;;16.95;13.52;;;12.90;99.90;;;;;;5110305;27;20042;-68
2022/10/31 09:20:35;;;;;;;20.17;15.07;;;13.00;99.90;;;;;;5111171;27;20090;-67
2022/10/31 09:23:23;;;;;;;18.50;14.15;;;13.10;99.90;;;;;;5109591;27;20039;-67
2022/10/31 09:25:51;;;;;;;17.15;13.23;;;13.10;99.90;;;;;;5112084;27;20039;-68
2022/10/31 09:28:19;;;;;;;19.40;13.02;;;13.10;99.90;;;;;;5113668;27;20104;-68
2022/10/31 09:30:50;;;;;;;19.30;13.98;;;13.10;99.90;;;;;;5113492;27;20050;-67
2022/10/31 09:33:16;;;;;;;19.45;14.25;;;13.10;99.90;;;;;;5096541;27;20114;-67
2022/10/31 09:35:42;;;;;;;23.17;14.20;;;13.10;99.90;;;;;;5113175;27;20125;-67
2022/10/31 09:38:09;;;;;;;20.50;14.90;;;13.20;99.90;;;;;;5111182;27;20070;-69
2022/10/31 09:40:43;;;;;;;23.98;15.57;;;13.30;99.90;;;;;;5131681;27;20065;-68
2022/10/31 09:43:25;;;;;;;19.50;14.20;;;13.40;99.90;;;;;;5111247;27;20041;-68
2022/10/31 09:46:03;;;;;;;18.40;14.23;;;13.60;99.90;;;;;;5131593;27;20039;-67
2022/10/31 09:48:59;;;;;;;19.95;14.65;;;13.70;99.90;;;;;;5113804;27;20034;-68
2022/10/31 09:51:35;;;;;;;17.70;13.88;;;13.60;99.90;;;;;;5114173;27;20039;-67
2022/10/31 09:54:18;;;;;;;19.90;14.27;;;13.60;99.90;;;;;;5114054;27;20523;-67
2022/10/31 09:56:44;;;;;;;19.05;14.20;;;13.50;99.90;;;;;;5109602;27;20397;-68
2022/10/31 09:59:40;;;;;;;21.70;14.70;;;13.50;99.90;;;;;;5112412;27;20094;-67
2022/10/31 10:02:26;;;;;;;18.23;14.00;;;13.50;99.90;;;;;;5031469;28;20098;-67
2022/10/31 10:05:01;;;;;;;22.08;15.75;;;13.50;99.90;;;;;;5031670;28;20087;-67
2022/10/31 10:07:32;;;;;;;20.58;15.57;;;13.50;99.90;;;;;;5031928;28;20086;-67
2022/10/31 10:10:10;;;;;;;22.85;15.77;;;13.50;99.90;;;;;;5031778;28;20487;-67
2022/10/31 10:12:50;;;;;;;21.33;15.75;;;13.60;99.90;;;;;;5031453;28;20604;-68
2022/10/31 10:15:43;;;;;;;19.60;15.35;;;13.60;99.90;;;;;;5031957;28;20045;-68
2022/10/31 10:18:31;;;;;;;19.83;14.98;;;13.70;99.90;;;;;;5041146;28;20052;-68
2022/10/31 10:21:22;;;;;;;19.35;15.68;;;13.90;99.90;;;;;;5030581;28;20089;-68
2022/10/31 10:24:15;;;;;;;22.52;15.27;;;14.20;99.90;;;;;;5030936;28;20049;-66
2022/10/31 10:26:49;;;;;;;18.63;13.95;;;14.50;99.90;;;;;;5045446;28;20057;-67
2022/10/31 10:29:31;;;;;;;20.88;15.50;;;14.70;99.90;;;;;;5030975;28;20083;-68
2022/10/31 10:31:59;;;;;;;21.45;15.18;;;14.70;99.90;;;;;;5029732;28;20041;-68
2022/10/31 10:34:38;;;;;;;21.85;15.27;;;14.70;99.90;;;;;;5031136;28;20090;-68
2022/10/31 10:37:24;;;;;;;18.42;14.88;;;14.90;99.90;;;;;;5027200;28;20049;-67
2022/10/31 10:39:55;;;;;;;17.88;14.18;;;15.20;99.90;;;;;;5094705;28;20535;-67
2022/10/31 10:48:40;;;;;;;20.58;12.82;;;15.30;99.90;;;;;;5107828;27;20111;-68
2022/10/31 10:51:15;;;;;;;20.05;13.18;;;15.30;99.90;;;;;;5047183;28;20028;-67
2022/10/31 10:54:13;;;;;;;16.48;11.65;;;15.30;99.90;;;;;;5050095;28;20071;-67
2022/10/31 10:57:03;;;;;;;17.35;11.90;;;15.40;99.90;;;;;;5050075;28;20044;-67
2022/10/31 10:59:30;;;;;;;15.52;11.68;;;15.30;99.90;;;;;;5045733;28;20090;-67
2022/10/31 11:01:56;;;;;;;15.57;11.18;;;15.30;99.90;;;;;;5050367;28;20060;-66
2022/10/31 11:04:34;;;;;;;15.40;9.77;;;15.30;99.90;;;;;;5050593;28;20032;-66
2022/10/31 11:07:09;;;;;;;15.55;11.27;;;15.30;99.90;;;;;;5050623;28;20515;-67
2022/10/31 11:09:36;;;;;;;15.40;10.80;;;15.30;99.90;;;;;;5049804;28;20061;-68
2022/10/31 11:12:09;;;;;;;15.57;11.23;;;15.30;99.90;;;;;;5054137;28;20564;-68
2022/10/31 11:14:49;;;;;;;16.42;10.77;;;15.20;99.90;;;;;;5050839;28;20111;-68
2022/10/31 11:17:27;;;;;;;15.85;10.68;;;15.20;99.90;;;;;;5067177;28;20039;-68
2022/10/31 11:20:11;;;;;;;15.75;10.02;;;15.20;99.90;;;;;;5036826;28;20036;-67
2022/10/31 11:22:37;;;;;;;15.38;10.10;;;15.20;99.90;;;;;;5103285;27;20497;-67
2022/10/31 11:25:24;;;;;;;17.73;10.70;;;15.20;99.90;;;;;;5116605;27;20039;-67
2022/10/31 11:28:09;;;;;;;15.40;11.82;;;15.20;99.90;;;;;;5115470;27;20035;-69
2022/10/31 11:30:45;;;;;;;15.77;11.27;;;15.20;99.90;;;;;;5113571;27;20035;-69
2022/10/31 11:33:33;;;;;;;16.88;11.93;;;15.20;99.90;;;;;;5114766;27;20039;-69
2022/10/31 11:36:01;;;;;;;17.92;12.35;;;15.20;99.90;;;;;;5110558;27;20473;-68
2022/10/31 11:38:41;;;;;;;17.73;11.90;;;15.20;99.90;;;;;;5134445;27;20415;-69
2022/10/31 11:41:15;;;;;;;18.02;12.40;;;15.20;99.90;;;;;;5115444;27;20030;-68
2022/10/31 11:43:57;;;;;;;15.70;11.68;;;15.20;99.90;;;;;;5115172;27;20066;-67
2022/10/31 11:47:01;;;;;;;15.70;11.38;;;15.30;99.90;;;;;;5116266;27;20051;-68
2022/10/31 11:49:41;;;;;;;13.80;10.35;;;15.30;99.90;;;;;;5047629;28;20041;-67
2022/10/31 11:52:20;;;;;;;17.02;10.05;;;15.30;99.90;;;;;;5050761;28;20052;-67
2022/10/31 11:54:52;;;;;;;18.02;9.93;;;15.30;99.90;;;;;;5042433;28;20045;-68
2022/10/31 11:57:27;;;;;;;15.40;9.75;;;15.40;99.90;;;;;;5042464;28;20507;-67
2022/10/31 11:59:55;;;;;;;14.20;9.20;;;15.30;99.90;;;;;;5051427;28;20039;-67
2022/10/31 12:02:20;;;;;;;16.02;9.77;;;15.40;99.90;;;;;;5034853;28;20098;-69
2022/10/31 12:04:59;;;;;;;14.93;9.32;;;15.40;99.90;;;;;;5053843;28;20483;-68
2022/10/31 12:07:25;;;;;;;15.23;8.82;;;15.50;99.90;;;;;;5052053;28;20037;-66
2022/10/31 12:09:51;;;;;;;14.05;8.48;;;15.50;99.90;;;;;;5051824;28;20051;-68
2022/10/31 12:12:28;;;;;;;11.93;8.02;;;15.60;99.90;;;;;;5053496;28;20426;-68
2022/10/31 12:15:28;;;;;;;12.20;7.40;;;15.60;99.90;;;;;;5057799;28;20158;-69
2022/10/31 12:18:16;;;;;;;14.18;8.90;;;15.60;99.90;;;;;;5049460;28;20044;-69
2022/10/31 12:21:40;;;;;;;14.70;8.45;;;15.60;99.90;;;;;;5053048;28;20048;-68
2022/10/31 12:24:53;;;;;;;12.80;8.35;;;15.60;99.90;;;;;;5008768;28;20385;-68
2022/10/31 12:27:51;;;;;;;15.25;9.07;;;15.60;99.90;;;;;;5045251;28;20076;-68
2022/10/31 12:30:21;;;;;;;14.70;7.82;;;15.60;99.90;;;;;;5064451;28;20040;-69
2022/10/31 12:33:20;;;;;;;13.60;9.35;;;15.60;99.90;;;;;;5053488;28;20044;-68
2022/10/31 12:35:57;;;;;;;16.23;8.63;;;15.60;99.90;;;;;;5052544;28;20044;-68
2022/10/31 12:38:45;;;;;;;12.63;7.93;;;15.50;99.90;;;;;;5053767;28;20652;-68
2022/10/31 12:41:36;;;;;;;12.88;8.45;;;15.50;99.90;;;;;;5051886;28;20131;-68
2022/10/31 12:44:30;;;;;;;14.77;8.07;;;15.50;99.90;;;;;;5052277;28;20535;-68
2022/10/31 12:47:19;;;;;;;13.70;8.40;;;15.50;99.90;;;;;;5053227;28;20522;-69
2022/10/31 12:50:16;;;;;;;13.18;8.95;;;15.50;99.90;;;;;;5050122;28;20123;-68
2022/10/31 12:53:09;;;;;;;12.88;8.18;;;15.60;99.90;;;;;;5006935;28;20046;-69
2022/10/31 12:55:46;;;;;;;;;;;15.60;99.90;;;;;;4991436;28;20046;-69
2022/10/31 12:58:43;;;;;;;12.80;8.75;;;15.60;99.90;;;;;;4987767;28;19947;-68
2022/10/31 13:01:26;;;;;;;13.35;8.07;;;15.70;99.90;;;;;;4991818;28;20066;-68
2022/10/31 13:04:24;;;;;;;12.73;8.38;;;15.90;99.90;;;;;;4980274;28;20728;-68
2022/10/31 13:07:01;;;;;;;13.25;7.45;;;16.40;99.90;;;;;;4972067;28;20144;-70
2022/10/31 13:09:44;;;;;;;11.70;7.07;;;16.70;99.90;;;;;;4992432;28;20050;-69